Time;durP1;ratioP1;P1;durP2;ratioP2;P2;SDS_P1;SDS_P2;PMS_P1;PMS_P2;Temp;Humidity;BMP_temperature;BMP_pressure;BME280_temperature;BME280_humidity;BME280_pressure;Samples;Min_cycle;Max_cycle;Signal;HPM_P1;HPM_P2
2023/01/17 00:01:32;;;;;;;8.63;7.83;;;4.90;99.90;;;;;;6050945;23;20399;-74
2023/01/17 00:12:19;;;;;;;10.00;9.00;;;4.90;99.90;;;;;;6051039;23;20809;-73
2023/01/17 00:14:47;;;;;;;9.10;8.30;;;4.90;99.90;;;;;;6050535;23;20716;-74
2023/01/17 00:17:15;;;;;;;9.83;8.93;;;4.90;99.90;;;;;;6051073;23;20428;-73
2023/01/17 01:35:44;;;;;;;11.50;9.80;;;4.60;99.90;;;;;;6049752;23;20388;-74
2023/01/17 01:38:12;;;;;;;13.60;11.03;;;4.60;99.90;;;;;;6015093;23;20446;-74
2023/01/17 01:40:46;;;;;;;14.07;11.47;;;4.60;99.90;;;;;;6040239;23;20888;-74
2023/01/17 01:43:18;;;;;;;14.40;10.83;;;4.50;99.90;;;;;;6049822;23;20407;-75
2023/01/17 01:45:51;;;;;;;17.70;11.40;;;4.50;99.90;;;;;;6040034;23;20722;-75
2023/01/17 01:48:33;;;;;;;16.87;13.00;;;4.50;99.90;;;;;;6048305;23;20781;-75
2023/01/17 01:51:03;;;;;;;14.40;11.40;;;4.50;99.90;;;;;;6040481;23;20415;-74
2023/01/17 01:53:35;;;;;;;14.23;11.57;;;4.50;99.90;;;;;;6014585;23;20437;-74
2023/01/17 01:56:09;;;;;;;14.27;10.97;;;4.40;99.90;;;;;;6014778;23;20492;-75
2023/01/17 01:58:40;;;;;;;14.53;11.93;;;4.40;99.90;;;;;;6050299;23;20388;-75
2023/01/17 02:01:09;;;;;;;13.77;11.10;;;4.40;99.90;;;;;;6014877;23;20420;-75
2023/01/17 02:03:39;;;;;;;13.23;10.20;;;4.40;99.90;;;;;;6049598;23;20408;-74
2023/01/17 02:06:19;;;;;;;14.00;10.60;;;4.40;99.90;;;;;;6049501;23;20475;-74
2023/01/17 02:08:48;;;;;;;14.90;11.23;;;4.40;99.90;;;;;;6050014;23;20475;-74
2023/01/17 02:11:16;;;;;;;15.63;13.13;;;4.40;99.90;;;;;;6049583;23;20463;-74
2023/01/17 02:13:46;;;;;;;11.40;9.60;;;4.40;99.90;;;;;;6049487;23;20439;-74
2023/01/17 02:16:28;;;;;;;13.23;10.17;;;4.40;99.90;;;;;;6014878;23;20447;-74
2023/01/17 02:19:09;;;;;;;12.20;9.50;;;4.40;99.90;;;;;;6015046;23;20424;-74
2023/01/17 02:21:43;;;;;;;10.37;9.17;;;4.40;99.90;;;;;;6049646;23;20389;-74
2023/01/17 02:24:47;;;;;;;9.97;7.87;;;4.40;99.90;;;;;;6049515;23;20833;-74
2023/01/17 02:27:24;;;;;;;9.37;8.17;;;4.40;99.90;;;;;;6014754;23;20500;-74
2023/01/17 02:30:27;;;;;;;9.87;8.43;;;4.40;99.90;;;;;;6049881;23;20717;-74
2023/01/17 02:33:16;;;;;;;11.53;8.97;;;4.40;99.90;;;;;;6040011;23;20400;-74
2023/01/17 02:35:56;;;;;;;11.00;7.37;;;4.40;99.90;;;;;;6014740;23;20412;-74
2023/01/17 02:38:33;;;;;;;9.67;7.53;;;4.40;99.90;;;;;;6049845;23;20385;-74
2023/01/17 02:41:06;;;;;;;8.97;7.13;;;4.40;99.90;;;;;;6014756;23;20411;-74
2023/01/17 02:43:36;;;;;;;7.17;6.10;;;4.30;99.90;;;;;;6050044;23;20395;-74
2023/01/17 02:46:06;;;;;;;9.00;5.90;;;4.40;99.90;;;;;;6049861;23;20424;-74
2023/01/17 02:48:37;;;;;;;8.00;6.93;;;4.30;99.90;;;;;;6049308;23;20389;-75
2023/01/17 02:51:24;;;;;;;9.33;5.97;;;4.40;99.90;;;;;;6049595;23;20404;-74
2023/01/17 02:54:05;;;;;;;6.37;5.27;;;4.40;99.90;;;;;;6049808;23;20807;-74
2023/01/17 02:56:44;;;;;;;6.50;5.10;;;4.40;99.90;;;;;;6014561;23;20954;-74
2023/01/17 02:59:27;;;;;;;6.10;4.10;;;4.40;99.90;;;;;;6049292;23;20385;-74
2023/01/17 03:02:10;;;;;;;4.90;3.33;;;4.30;99.90;;;;;;6014633;23;20454;-75
2023/01/17 03:04:44;;;;;;;5.67;3.40;;;4.40;99.90;;;;;;6049293;23;20386;-75
2023/01/17 03:07:16;;;;;;;4.53;2.80;;;4.40;99.90;;;;;;6051673;23;20416;-75
2023/01/17 03:09:46;;;;;;;3.73;2.73;;;4.40;99.90;;;;;;6016513;23;20416;-75
2023/01/17 03:12:15;;;;;;;3.50;2.53;;;4.40;99.90;;;;;;6016423;23;20419;-75
2023/01/17 03:14:43;;;;;;;3.87;2.60;;;4.40;99.90;;;;;;6051531;23;20436;-74
2023/01/17 03:17:13;;;;;;;4.00;2.57;;;4.40;99.90;;;;;;6052487;23;20420;-73
2023/01/17 03:19:41;;;;;;;5.60;2.57;;;4.40;99.90;;;;;;6042637;23;20410;-74
2023/01/17 03:22:09;;;;;;;5.20;2.50;;;4.40;99.90;;;;;;6017058;23;20412;-74
2023/01/17 03:24:37;;;;;;;4.10;2.60;;;4.40;99.90;;;;;;6051281;23;20396;-73
2023/01/17 03:27:05;;;;;;;3.63;2.10;;;4.40;99.90;;;;;;6051208;23;20427;-73
2023/01/17 03:29:33;;;;;;;3.90;2.20;;;4.30;99.90;;;;;;6050973;23;20401;-75
2023/01/17 03:32:01;;;;;;;3.37;2.10;;;4.30;99.90;;;;;;6051892;23;20455;-75
2023/01/17 03:34:31;;;;;;;3.93;1.93;;;4.30;99.90;;;;;;6019076;23;20443;-75
2023/01/17 03:36:59;;;;;;;3.30;1.90;;;4.30;99.90;;;;;;6052588;23;20758;-73
2023/01/17 03:39:27;;;;;;;3.63;1.80;;;4.30;99.90;;;;;;6051202;23;20972;-74
2023/01/17 03:41:55;;;;;;;2.60;1.40;;;4.30;99.90;;;;;;6041845;23;20423;-74
2023/01/17 03:44:23;;;;;;;2.93;1.20;;;4.30;99.90;;;;;;6051546;23;20724;-75
2023/01/17 03:46:51;;;;;;;2.60;1.27;;;4.30;99.90;;;;;;6016129;23;20440;-75
2023/01/17 03:49:19;;;;;;;3.33;1.10;;;4.30;99.90;;;;;;6050778;23;20746;-74
2023/01/17 03:51:49;;;;;;;2.90;1.03;;;4.30;99.90;;;;;;6051005;23;20400;-75
2023/01/17 03:54:17;;;;;;;4.07;1.27;;;4.30;99.90;;;;;;6050697;23;20440;-75
2023/01/17 03:56:45;;;;;;;3.20;1.07;;;4.20;99.90;;;;;;6050744;23;20416;-75
2023/01/17 03:59:13;;;;;;;3.03;0.70;;;4.20;99.90;;;;;;6016150;23;20420;-75
2023/01/17 04:01:41;;;;;;;3.47;0.90;;;4.20;99.90;;;;;;6050734;23;20473;-74
2023/01/17 04:04:09;;;;;;;4.30;0.77;;;4.20;99.90;;;;;;6051067;23;20491;-75
2023/01/17 04:06:37;;;;;;;2.20;0.80;;;4.10;99.90;;;;;;6050827;23;20420;-75
2023/01/17 04:09:07;;;;;;;2.20;0.70;;;4.10;99.90;;;;;;6050952;23;20439;-75
2023/01/17 04:11:35;;;;;;;3.83;1.03;;;4.10;99.90;;;;;;6050967;23;20412;-75
2023/01/17 04:14:03;;;;;;;2.97;1.00;;;4.10;99.90;;;;;;6041421;23;20423;-75
2023/01/17 04:16:32;;;;;;;4.40;1.07;;;4.10;99.90;;;;;;6015639;23;20459;-75
2023/01/17 04:19:00;;;;;;;3.87;1.40;;;4.10;99.90;;;;;;6050617;23;20793;-75
2023/01/17 04:21:28;;;;;;;3.77;1.40;;;4.10;99.90;;;;;;6015855;23;20416;-75
2023/01/17 04:23:56;;;;;;;5.10;1.60;;;4.00;99.90;;;;;;6051474;23;20868;-75
2023/01/17 04:26:25;;;;;;;3.40;0.90;;;4.00;99.90;;;;;;6051991;23;20420;-75
2023/01/17 04:28:53;;;;;;;4.07;1.40;;;4.00;99.90;;;;;;6042548;23;20426;-75
2023/01/17 04:31:21;;;;;;;3.70;1.20;;;4.00;99.90;;;;;;6050851;23;20887;-74
2023/01/17 04:33:49;;;;;;;3.83;1.30;;;4.00;99.90;;;;;;6041654;23;20439;-75
2023/01/17 04:36:17;;;;;;;5.13;1.60;;;4.00;99.90;;;;;;6051628;23;20454;-75
2023/01/17 04:38:45;;;;;;;3.60;0.93;;;4.00;99.90;;;;;;6016071;23;20438;-75
2023/01/17 04:41:13;;;;;;;4.23;1.20;;;4.00;99.90;;;;;;6016032;23;20423;-74
2023/01/17 04:43:43;;;;;;;4.70;1.50;;;4.00;99.90;;;;;;6015941;23;20848;-75
2023/01/17 04:46:11;;;;;;;5.20;1.43;;;4.00;99.90;;;;;;6050854;23;20787;-74
2023/01/17 04:48:39;;;;;;;3.47;1.10;;;4.00;99.90;;;;;;6047627;23;20399;-75
2023/01/17 04:51:08;;;;;;;4.10;1.10;;;4.00;99.90;;;;;;6051261;23;20416;-74
2023/01/17 04:53:36;;;;;;;6.33;1.30;;;4.00;99.90;;;;;;6050295;23;20472;-75
2023/01/17 04:56:04;;;;;;;4.60;1.20;;;4.00;99.90;;;;;;6050085;23;20467;-74
2023/01/17 04:58:33;;;;;;;5.67;1.10;;;3.90;99.90;;;;;;6050204;23;20404;-75
2023/01/17 05:01:03;;;;;;;4.73;1.20;;;4.00;99.90;;;;;;6015525;23;20919;-75
2023/01/17 05:03:31;;;;;;;4.97;1.20;;;4.00;99.90;;;;;;6050520;23;20694;-75
2023/01/17 05:06:00;;;;;;;6.70;1.50;;;3.90;99.90;;;;;;6015366;23;20436;-74
2023/01/17 05:08:28;;;;;;;5.57;1.20;;;3.90;99.90;;;;;;6050109;23;20401;-74
2023/01/17 05:10:56;;;;;;;4.20;1.07;;;3.90;99.90;;;;;;6050465;23;20432;-74
2023/01/17 05:13:24;;;;;;;4.17;1.20;;;4.00;99.90;;;;;;6050079;23;20407;-74
2023/01/17 05:15:52;;;;;;;5.73;1.50;;;3.90;99.90;;;;;;6049907;23;20491;-74
2023/01/17 05:18:22;;;;;;;7.90;1.93;;;3.90;99.90;;;;;;6050364;23;20404;-74
2023/01/17 05:20:50;;;;;;;6.23;1.43;;;4.00;99.90;;;;;;6050031;23;20407;-74
2023/01/17 05:23:18;;;;;;;4.10;1.27;;;4.00;99.90;;;;;;6049967;23;20483;-74
2023/01/17 05:25:46;;;;;;;6.73;1.30;;;3.90;99.90;;;;;;6050290;23;20400;-74
2023/01/17 05:28:14;;;;;;;3.43;1.10;;;4.00;99.90;;;;;;6049813;23;20452;-74
2023/01/17 05:30:42;;;;;;;4.77;1.47;;;4.00;99.90;;;;;;6015265;23;20507;-74
2023/01/17 05:33:10;;;;;;;5.43;1.37;;;4.00;99.90;;;;;;6050145;23;20495;-74
2023/01/17 05:35:40;;;;;;;4.37;1.47;;;4.00;99.90;;;;;;6049628;23;20789;-75
2023/01/17 05:38:08;;;;;;;7.03;1.60;;;4.00;99.90;;;;;;6049908;23;20491;-75
2023/01/17 05:40:36;;;;;;;6.20;1.10;;;4.00;99.90;;;;;;6015172;23;20412;-74
2023/01/17 05:43:04;;;;;;;8.50;2.10;;;4.00;99.90;;;;;;6049837;23;20455;-75
2023/01/17 05:45:33;;;;;;;6.53;1.73;;;4.00;99.90;;;;;;6015112;23;20422;-74
2023/01/17 05:48:02;;;;;;;5.63;1.50;;;4.00;99.90;;;;;;6050484;23;20424;-75
2023/01/17 05:50:32;;;;;;;4.27;1.10;;;4.00;99.90;;;;;;6049610;23;20411;-75
2023/01/17 05:53:04;;;;;;;5.47;1.77;;;3.90;99.90;;;;;;6050085;23;20407;-75
2023/01/17 05:55:33;;;;;;;3.30;1.40;;;3.90;99.90;;;;;;6014888;23;20538;-75
2023/01/17 05:58:02;;;;;;;4.93;1.30;;;3.80;99.90;;;;;;6049566;23;20420;-75
2023/01/17 06:00:31;;;;;;;3.73;1.93;;;3.70;99.90;;;;;;6049906;23;20443;-75
2023/01/17 06:03:00;;;;;;;3.43;1.30;;;3.60;99.90;;;;;;6014934;23;20420;-75
2023/01/17 06:05:29;;;;;;;4.10;1.47;;;3.50;99.90;;;;;;6040239;23;20435;-74
2023/01/17 06:07:57;;;;;;;5.43;1.70;;;3.50;99.90;;;;;;6014781;23;20773;-75
2023/01/17 06:10:28;;;;;;;3.73;1.77;;;3.40;99.90;;;;;;6050188;23;20456;-75
2023/01/17 06:13:04;;;;;;;5.60;1.70;;;3.40;99.90;;;;;;6049822;23;20749;-75
2023/01/17 06:15:34;;;;;;;5.40;1.63;;;3.40;99.90;;;;;;6040220;23;20432;-75
2023/01/17 06:18:06;;;;;;;5.47;2.10;;;3.30;99.90;;;;;;6049492;23;20408;-75
2023/01/17 06:20:35;;;;;;;3.97;1.80;;;3.30;99.90;;;;;;6049267;23;20911;-75
2023/01/17 06:23:04;;;;;;;4.73;2.20;;;3.30;99.90;;;;;;6050045;23;20718;-75
2023/01/17 06:25:37;;;;;;;5.97;2.37;;;3.20;99.90;;;;;;6050049;23;20895;-75
2023/01/17 06:28:05;;;;;;;5.43;1.97;;;3.20;99.90;;;;;;6049432;23;20419;-75
2023/01/17 06:30:35;;;;;;;4.00;1.63;;;3.20;99.90;;;;;;6014666;23;20508;-75
2023/01/17 06:33:03;;;;;;;5.47;3.13;;;3.10;99.90;;;;;;6014818;23;20804;-75
2023/01/17 06:35:32;;;;;;;7.03;1.97;;;3.10;99.90;;;;;;6014420;23;20426;-75
2023/01/17 06:38:00;;;;;;;4.90;1.23;;;3.20;99.90;;;;;;6014527;23;20454;-75
2023/01/17 06:40:29;;;;;;;10.00;1.50;;;3.10;99.90;;;;;;6049019;23;20883;-75
2023/01/17 06:43:01;;;;;;;6.20;1.40;;;3.20;99.90;;;;;;6049703;23;20419;-75
2023/01/17 06:45:30;;;;;;;6.50;1.50;;;3.10;99.90;;;;;;6049675;23;20421;-75
2023/01/17 06:47:58;;;;;;;5.40;1.77;;;3.10;99.90;;;;;;6050497;23;20427;-75
2023/01/17 06:50:27;;;;;;;5.70;1.53;;;3.10;99.90;;;;;;6049151;23;20747;-75
2023/01/17 06:52:57;;;;;;;6.47;2.00;;;3.10;99.90;;;;;;6014601;23;20424;-75
2023/01/17 06:55:27;;;;;;;5.00;1.50;;;3.10;99.90;;;;;;6049153;23;20478;-75
2023/01/17 06:57:55;;;;;;;5.00;1.83;;;3.10;99.90;;;;;;6014418;23;20435;-75
2023/01/17 07:00:25;;;;;;;6.47;1.80;;;3.10;99.90;;;;;;6049185;23;20407;-75
2023/01/17 07:02:54;;;;;;;5.00;1.73;;;3.10;99.90;;;;;;6014463;23;20431;-75
2023/01/17 07:05:22;;;;;;;6.47;2.17;;;3.00;99.90;;;;;;6014462;23;20825;-75
2023/01/17 07:07:50;;;;;;;3.87;1.80;;;3.00;99.90;;;;;;6039593;23;20428;-75
2023/01/17 07:10:18;;;;;;;6.80;1.80;;;3.00;99.90;;;;;;6014681;23;20731;-75
2023/01/17 07:12:46;;;;;;;7.57;2.23;;;3.10;99.90;;;;;;6049318;23;20411;-75
2023/01/17 07:15:14;;;;;;;7.97;2.70;;;3.00;99.90;;;;;;6014673;23;20513;-75
2023/01/17 07:17:44;;;;;;;8.70;2.77;;;3.00;99.90;;;;;;6049419;23;20468;-75
2023/01/17 07:20:12;;;;;;;8.27;2.53;;;3.10;99.90;;;;;;6049670;23;20410;-74
2023/01/17 07:22:44;;;;;;;7.00;3.40;;;3.10;99.90;;;;;;6049210;23;20928;-75
2023/01/17 07:25:12;;;;;;;7.40;3.10;;;3.10;99.90;;;;;;6049208;23;20389;-73
2023/01/17 07:27:40;;;;;;;7.97;2.80;;;3.10;99.90;;;;;;6052339;23;20930;-73
2023/01/17 07:30:10;;;;;;;5.23;2.60;;;3.10;99.90;;;;;;6040356;23;20418;-73
2023/01/17 07:32:38;;;;;;;6.57;2.73;;;3.10;99.90;;;;;;6050167;23;20421;-73
2023/01/17 07:35:08;;;;;;;7.33;2.80;;;3.10;99.90;;;;;;6049554;23;20455;-75
2023/01/17 07:37:37;;;;;;;6.03;2.70;;;3.10;99.90;;;;;;6014556;23;20450;-75
2023/01/17 07:40:07;;;;;;;7.30;2.80;;;3.10;99.90;;;;;;6049412;23;20474;-75
2023/01/17 07:42:35;;;;;;;9.70;3.10;;;3.10;99.90;;;;;;6048823;23;20414;-75
2023/01/17 07:45:03;;;;;;;8.70;3.53;;;3.10;99.90;;;;;;6014381;23;20420;-75
2023/01/17 07:47:32;;;;;;;12.70;3.20;;;3.10;99.90;;;;;;6014292;23;20436;-75
2023/01/17 07:50:01;;;;;;;7.50;2.40;;;;;;;;;;6029076;23;20423;-75
2023/01/17 07:52:31;;;;;;;6.00;2.30;;;3.10;99.90;;;;;;6040957;23;20868;-74
2023/01/17 07:54:59;;;;;;;6.10;2.40;;;3.00;99.90;;;;;;6051133;23;20724;-73
2023/01/17 07:57:27;;;;;;;6.17;2.60;;;3.00;99.90;;;;;;6040966;23;20920;-75
2023/01/17 07:59:55;;;;;;;6.10;2.10;;;3.00;99.90;;;;;;6050715;23;20398;-74
2023/01/17 08:02:23;;;;;;;8.03;2.20;;;3.00;99.90;;;;;;6039652;23;20967;-75
2023/01/17 08:04:51;;;;;;;7.03;2.50;;;3.00;99.90;;;;;;6050720;23;20435;-75
2023/01/17 08:07:20;;;;;;;7.43;2.47;;;3.00;99.90;;;;;;6050496;23;20430;-75
2023/01/17 08:09:49;;;;;;;7.50;1.90;;;3.00;99.90;;;;;;6050624;23;20407;-74
2023/01/17 08:12:17;;;;;;;6.77;2.50;;;2.90;99.90;;;;;;6050645;23;20440;-74
2023/01/17 08:14:45;;;;;;;8.23;2.40;;;2.90;99.90;;;;;;6050514;23;20439;-74
2023/01/17 08:17:15;;;;;;;6.60;1.90;;;2.90;99.90;;;;;;6050397;23;20436;-75
2023/01/17 08:19:44;;;;;;;7.73;2.40;;;2.90;99.90;;;;;;6050165;23;20385;-74
2023/01/17 08:22:12;;;;;;;8.53;2.60;;;2.90;99.90;;;;;;6039525;23;20449;-75
2023/01/17 08:24:41;;;;;;;6.90;2.50;;;2.90;99.90;;;;;;6050849;23;20459;-75
2023/01/17 08:27:11;;;;;;;6.93;2.27;;;2.80;99.90;;;;;;6050392;23;20426;-74
2023/01/17 08:29:41;;;;;;;8.30;2.20;;;2.80;99.90;;;;;;6039474;23;20442;-74
2023/01/17 08:32:09;;;;;;;6.70;2.00;;;2.80;99.90;;;;;;6039467;23;20424;-74
2023/01/17 08:34:37;;;;;;;5.30;1.90;;;2.80;99.90;;;;;;6041172;23;20415;-74
2023/01/17 08:37:06;;;;;;;7.90;1.57;;;2.80;99.90;;;;;;6039185;23;20475;-74
2023/01/17 08:39:34;;;;;;;14.90;3.20;;;2.80;99.90;;;;;;6050418;23;20740;-74
2023/01/17 08:42:02;;;;;;;6.90;2.70;;;2.80;99.90;;;;;;6051025;23;20414;-74
2023/01/17 08:44:32;;;;;;;8.07;2.90;;;2.80;99.90;;;;;;6039276;23;20471;-74
2023/01/17 08:47:00;;;;;;;7.47;3.00;;;2.80;99.90;;;;;;6050309;23;20418;-74
2023/01/17 08:49:28;;;;;;;4.90;2.00;;;2.80;99.90;;;;;;6050243;23;20751;-74
2023/01/17 08:51:57;;;;;;;7.17;2.60;;;2.80;99.90;;;;;;6015541;23;20426;-74
2023/01/17 08:54:25;;;;;;;8.10;2.27;;;2.80;99.90;;;;;;6050272;23;20399;-74
2023/01/17 08:56:54;;;;;;;5.23;1.80;;;2.80;99.90;;;;;;6015410;23;20448;-74
2023/01/17 08:59:22;;;;;;;7.63;2.00;;;2.80;99.90;;;;;;6015456;23;20416;-74
2023/01/17 09:01:56;;;;;;;4.73;1.53;;;2.80;99.90;;;;;;6050218;23;20403;-74
2023/01/17 09:04:25;;;;;;;7.43;1.70;;;2.80;99.90;;;;;;6049977;23;20412;-74
2023/01/17 09:06:53;;;;;;;7.10;1.60;;;2.80;99.90;;;;;;6050919;23;20923;-74
2023/01/17 09:09:21;;;;;;;5.30;1.80;;;2.80;99.90;;;;;;6041398;23;20408;-74
2023/01/17 09:11:49;;;;;;;6.40;1.77;;;2.80;99.90;;;;;;6050670;23;20427;-74
2023/01/17 09:14:18;;;;;;;5.20;1.50;;;2.80;99.90;;;;;;6015845;23;20415;-74
2023/01/17 09:16:47;;;;;;;4.63;1.47;;;2.80;99.90;;;;;;6050189;23;20928;-74
2023/01/17 09:19:16;;;;;;;8.10;1.67;;;2.90;99.90;;;;;;6050256;23;20398;-74
2023/01/17 09:21:44;;;;;;;8.43;1.90;;;2.90;99.90;;;;;;6040915;23;20412;-74
2023/01/17 09:24:13;;;;;;;9.17;2.30;;;2.90;99.90;;;;;;6015381;23;20458;-74
2023/01/17 09:26:41;;;;;;;5.50;2.07;;;2.90;99.90;;;;;;6050169;23;20441;-75
2023/01/17 09:29:09;;;;;;;7.87;2.23;;;2.90;99.90;;;;;;6050313;23;20402;-74
2023/01/17 09:31:37;;;;;;;9.57;2.30;;;2.90;99.90;;;;;;6049953;23;20503;-74
2023/01/17 09:34:05;;;;;;;8.23;1.63;;;3.00;99.90;;;;;;6050182;23;20418;-74
2023/01/17 09:36:34;;;;;;;3.90;1.60;;;3.00;99.90;;;;;;6050104;23;20457;-74
2023/01/17 09:39:03;;;;;;;4.40;1.33;;;3.00;99.90;;;;;;6049853;23;20427;-74
2023/01/17 09:41:33;;;;;;;6.67;1.73;;;3.00;99.90;;;;;;6040605;23;20739;-74
2023/01/17 09:44:06;;;;;;;4.63;1.30;;;3.10;99.90;;;;;;6041554;23;20773;-74
2023/01/17 09:46:39;;;;;;;5.73;1.50;;;3.10;99.90;;;;;;6015032;23;20815;-74
2023/01/17 09:49:12;;;;;;;9.60;1.60;;;3.10;99.90;;;;;;6049904;23;20422;-74
2023/01/17 09:51:42;;;;;;;6.73;1.93;;;3.10;99.90;;;;;;6049739;23;20504;-74
2023/01/17 09:54:20;;;;;;;8.10;2.77;;;3.10;99.90;;;;;;6050178;23;20472;-74
2023/01/17 09:56:58;;;;;;;7.20;2.13;;;3.10;99.90;;;;;;6049966;23;20426;-74
2023/01/17 09:59:32;;;;;;;6.97;1.90;;;3.20;99.90;;;;;;6015035;23;20775;-74
2023/01/17 10:02:19;;;;;;;4.00;1.60;;;3.20;99.90;;;;;;6050007;23;20386;-74
2023/01/17 10:05:02;;;;;;;5.10;1.30;;;3.20;99.90;;;;;;6050293;23;20421;-74
2023/01/17 10:07:41;;;;;;;5.10;1.70;;;3.30;99.90;;;;;;6040543;23;20431;-74
2023/01/17 10:10:20;;;;;;;6.80;1.50;;;3.30;99.90;;;;;;6049840;23;20389;-74
2023/01/17 10:13:05;;;;;;;5.50;2.00;;;3.30;99.90;;;;;;6050295;23;20419;-74
2023/01/17 10:15:53;;;;;;;5.20;1.90;;;3.30;99.90;;;;;;6049388;23;20387;-74
2023/01/17 10:18:47;;;;;;;7.03;2.17;;;3.40;99.90;;;;;;6014927;23;20474;-74
2023/01/17 10:21:26;;;;;;;4.30;1.53;;;3.40;99.90;;;;;;6015057;23;20421;-74
2023/01/17 10:24:15;;;;;;;5.10;2.37;;;3.40;99.90;;;;;;6049712;23;20384;-74
2023/01/17 10:26:46;;;;;;;9.60;3.07;;;3.40;99.90;;;;;;6049480;23;20470;-75
2023/01/17 10:29:17;;;;;;;5.37;2.00;;;3.40;99.90;;;;;;6014840;23;20518;-74
2023/01/17 10:31:54;;;;;;;4.40;1.87;;;3.50;99.90;;;;;;6014697;23;20478;-74
2023/01/17 10:34:28;;;;;;;7.77;1.97;;;3.70;99.90;;;;;;6049867;23;20384;-74
2023/01/17 10:37:01;;;;;;;7.37;1.83;;;3.50;99.90;;;;;;6040029;23;20435;-74
2023/01/17 10:39:31;;;;;;;3.03;1.30;;;3.50;99.90;;;;;;6040057;23;20431;-74
2023/01/17 10:42:06;;;;;;;3.70;1.50;;;3.60;99.90;;;;;;6039844;23;20399;-74
2023/01/17 10:44:41;;;;;;;4.53;1.50;;;3.60;99.90;;;;;;6014687;23;20449;-74
2023/01/17 10:47:18;;;;;;;6.40;1.97;;;3.60;99.90;;;;;;6049243;23;20496;-74
2023/01/17 10:49:48;;;;;;;4.87;1.37;;;3.60;99.90;;;;;;6026378;23;20428;-74
2023/01/17 10:52:29;;;;;;;4.87;2.30;;;3.60;99.90;;;;;;6049566;23;20713;-74
2023/01/17 10:55:16;;;;;;;4.40;1.20;;;3.70;99.90;;;;;;6038276;23;20419;-74
2023/01/17 10:57:47;;;;;;;5.70;1.43;;;3.70;99.90;;;;;;6049169;23;20458;-74
2023/01/17 11:00:30;;;;;;;10.50;1.83;;;3.70;99.90;;;;;;6049211;23;20489;-74
2023/01/17 11:02:59;;;;;;;5.90;1.70;;;3.80;99.90;;;;;;6038207;23;20777;-74
2023/01/17 11:05:30;;;;;;;4.83;1.27;;;3.80;99.90;;;;;;6049762;23;20403;-74
2023/01/17 11:08:00;;;;;;;5.60;1.80;;;3.80;99.90;;;;;;6049530;23;20418;-74
2023/01/17 11:10:42;;;;;;;5.23;2.03;;;3.90;99.90;;;;;;6040471;23;20393;-74
2023/01/17 11:13:29;;;;;;;6.40;1.80;;;3.90;99.90;;;;;;6038489;23;20475;-74
2023/01/17 11:16:01;;;;;;;5.43;2.30;;;3.90;99.90;;;;;;6049490;23;20452;-74
2023/01/17 11:18:31;;;;;;;5.20;1.90;;;3.90;99.90;;;;;;6049624;23;20476;-74
2023/01/17 11:21:10;;;;;;;7.47;1.80;;;4.00;99.90;;;;;;6053700;23;20394;-73
2023/01/17 11:23:41;;;;;;;10.07;2.17;;;4.00;99.90;;;;;;6050577;23;20388;-73
2023/01/17 11:26:21;;;;;;;6.50;2.40;;;4.00;99.90;;;;;;6050253;23;20435;-74
2023/01/17 11:28:50;;;;;;;6.10;2.40;;;4.10;99.90;;;;;;6051873;23;20380;-74
2023/01/17 11:31:26;;;;;;;4.77;1.80;;;4.10;99.90;;;;;;6051134;23;20742;-74
2023/01/17 11:34:15;;;;;;;5.70;1.67;;;4.10;99.90;;;;;;6040328;23;20903;-74
2023/01/17 11:36:44;;;;;;;5.17;1.90;;;4.20;99.90;;;;;;6051082;23;20416;-73
2023/01/17 11:39:26;;;;;;;6.47;2.03;;;4.20;99.90;;;;;;6051024;23;20442;-74
2023/01/17 11:41:56;;;;;;;4.77;1.90;;;4.20;99.90;;;;;;6051276;23;20395;-74
2023/01/17 11:44:26;;;;;;;5.60;2.50;;;4.20;99.90;;;;;;6050981;23;20488;-75
2023/01/17 11:47:17;;;;;;;4.30;1.80;;;4.20;99.90;;;;;;6051188;23;20472;-75
2023/01/17 11:49:47;;;;;;;4.10;1.90;;;4.20;99.90;;;;;;6050995;23;20419;-74
2023/01/17 11:52:24;;;;;;;7.53;1.80;;;4.20;99.90;;;;;;6017035;23;20392;-74
2023/01/17 11:54:55;;;;;;;6.70;2.27;;;4.20;99.90;;;;;;6050912;23;20383;-73
2023/01/17 11:57:27;;;;;;;4.77;1.80;;;4.20;99.90;;;;;;6016298;23;20480;-73
2023/01/17 12:00:03;;;;;;;4.43;1.83;;;4.20;99.90;;;;;;6016037;23;20944;-74
2023/01/17 12:03:01;;;;;;;5.60;2.33;;;4.20;99.90;;;;;;6041205;23;20427;-73
2023/01/17 12:05:42;;;;;;;5.30;2.13;;;4.30;99.90;;;;;;6013101;23;20420;-75
2023/01/17 12:08:22;;;;;;;4.90;1.80;;;4.30;99.90;;;;;;6051117;23;20381;-73
2023/01/17 12:10:56;;;;;;;6.90;2.20;;;4.30;99.90;;;;;;6016250;23;20419;-74
2023/01/17 12:16:32;;;;;;;7.10;2.13;;;4.30;99.90;;;;;;6050717;23;20424;-73
2023/01/17 12:19:24;;;;;;;4.57;1.70;;;4.30;99.90;;;;;;6050854;23;20420;-74
2023/01/17 12:22:03;;;;;;;5.33;2.00;;;4.30;99.90;;;;;;6041242;23;20452;-75
2023/01/17 12:25:00;;;;;;;5.93;1.90;;;4.40;99.90;;;;;;6051153;23;20479;-74
2023/01/17 12:27:34;;;;;;;4.50;1.93;;;4.40;99.90;;;;;;6015909;23;20447;-74
2023/01/17 12:30:29;;;;;;;5.50;1.60;;;4.40;99.90;;;;;;6017309;23;20426;-74
2023/01/17 12:33:18;;;;;;;6.40;2.03;;;4.40;99.90;;;;;;6052253;23;20389;-74
2023/01/17 12:35:51;;;;;;;4.63;2.00;;;4.40;99.90;;;;;;6050715;23;20384;-74
2023/01/17 12:38:25;;;;;;;4.60;1.67;;;4.40;99.90;;;;;;6015753;23;20416;-73
2023/01/17 12:41:06;;;;;;;5.17;1.97;;;4.40;99.90;;;;;;6016489;23;20791;-75
2023/01/17 12:43:39;;;;;;;5.20;1.80;;;4.50;99.90;;;;;;6050589;23;20376;-74
2023/01/17 12:46:19;;;;;;;5.60;2.70;;;4.50;99.90;;;;;;6050801;23;20934;-74
2023/01/17 12:48:50;;;;;;;6.30;2.47;;;4.50;99.90;;;;;;6051062;23;20467;-75
2023/01/17 12:51:26;;;;;;;6.70;2.97;;;4.50;99.90;;;;;;6050908;23;20483;-74
2023/01/17 12:54:00;;;;;;;5.20;2.03;;;4.50;99.90;;;;;;6050670;23;20395;-74
2023/01/17 12:56:32;;;;;;;8.53;2.17;;;4.50;99.90;;;;;;6050798;23;20426;-74
2023/01/17 12:59:08;;;;;;;5.80;2.20;;;4.40;99.90;;;;;;6050548;23;20420;-74
2023/01/17 13:01:41;;;;;;;4.60;2.07;;;4.40;99.90;;;;;;6050452;23;20387;-74
2023/01/17 13:04:18;;;;;;;5.00;2.07;;;4.40;99.90;;;;;;6050666;23;20828;-75
2023/01/17 13:06:56;;;;;;;6.00;2.47;;;4.40;99.90;;;;;;6041016;23;20431;-75
2023/01/17 13:09:26;;;;;;;7.03;2.70;;;4.40;99.90;;;;;;6015851;23;20443;-75
2023/01/17 13:11:59;;;;;;;7.13;3.00;;;4.40;99.90;;;;;;6050880;23;20393;-75
2023/01/17 13:14:27;;;;;;;6.10;3.07;;;4.40;99.90;;;;;;6040690;23;20407;-74
2023/01/17 13:16:59;;;;;;;9.33;3.13;;;4.40;99.90;;;;;;6015426;23;20439;-73
2023/01/17 13:19:37;;;;;;;7.00;3.80;;;4.40;99.90;;;;;;6015370;23;20444;-73
2023/01/17 13:22:09;;;;;;;6.13;3.93;;;4.40;99.90;;;;;;6050462;23;20484;-74
2023/01/17 13:24:48;;;;;;;7.60;3.20;;;4.50;99.90;;;;;;6050018;23;20377;-74
2023/01/17 13:27:37;;;;;;;5.90;3.40;;;4.50;99.90;;;;;;6050021;23;20420;-75
2023/01/17 13:30:31;;;;;;;6.10;2.73;;;4.60;99.90;;;;;;6050430;23;20712;-75
2023/01/17 13:33:22;;;;;;;5.73;2.50;;;4.70;99.90;;;;;;6015244;23;20499;-75
2023/01/17 13:36:01;;;;;;;5.60;2.37;;;4.80;99.90;;;;;;6049931;23;20395;-75
2023/01/17 13:38:53;;;;;;;6.80;3.07;;;4.80;99.90;;;;;;6050573;23;20686;-75
2023/01/17 13:41:42;;;;;;;4.43;3.03;;;4.90;99.90;;;;;;6050215;23;20389;-75
2023/01/17 13:44:23;;;;;;;8.53;3.40;;;4.90;99.90;;;;;;6015416;23;20412;-75
2023/01/17 13:47:00;;;;;;;7.10;3.13;;;5.00;99.90;;;;;;6049898;23;20428;-75
2023/01/17 13:49:35;;;;;;;6.57;3.43;;;5.00;99.90;;;;;;6040316;23;20426;-75
2023/01/17 13:52:10;;;;;;;6.90;3.70;;;5.00;99.90;;;;;;6014946;23;20894;-75
2023/01/17 13:54:46;;;;;;;5.60;3.70;;;5.00;99.90;;;;;;6050418;23;20770;-75
2023/01/17 13:57:35;;;;;;;8.90;3.80;;;5.00;99.90;;;;;;6015205;23;20783;-75
2023/01/17 14:00:36;;;;;;;5.30;3.17;;;5.00;99.90;;;;;;6015103;23;20832;-75
2023/01/17 14:03:04;;;;;;;7.10;4.27;;;5.00;99.90;;;;;;6034879;23;20451;-75
2023/01/17 14:05:56;;;;;;;5.03;3.00;;;5.00;99.90;;;;;;6014972;23;20424;-75
2023/01/17 14:08:26;;;;;;;5.03;3.30;;;5.00;99.90;;;;;;6040390;23;20404;-75
2023/01/17 14:11:04;;;;;;;5.07;3.50;;;4.90;99.90;;;;;;6049801;23;20392;-75
2023/01/17 14:13:36;;;;;;;7.53;3.10;;;4.90;99.90;;;;;;6049630;23;20927;-75
2023/01/17 14:16:24;;;;;;;6.03;3.87;;;4.90;99.90;;;;;;6014641;23;20436;-75
2023/01/17 14:18:53;;;;;;;5.13;2.63;;;4.90;99.90;;;;;;6014837;23;20453;-75
2023/01/17 14:21:25;;;;;;;6.70;3.40;;;4.90;99.90;;;;;;6049675;23;20432;-75
2023/01/17 14:24:02;;;;;;;5.17;3.20;;;4.90;99.90;;;;;;6015008;23;20411;-75
2023/01/17 14:26:42;;;;;;;7.57;3.10;;;4.80;99.90;;;;;;6049810;23;20424;-75
2023/01/17 14:29:47;;;;;;;5.67;3.07;;;4.80;99.90;;;;;;6014880;23;20404;-75
2023/01/17 14:32:18;;;;;;;7.13;3.20;;;4.80;99.90;;;;;;6015035;23;20418;-75
2023/01/17 14:34:48;;;;;;;6.87;3.30;;;4.70;99.90;;;;;;6049691;23;20917;-75
2023/01/17 14:37:27;;;;;;;4.77;2.90;;;4.70;99.90;;;;;;6049934;23;20518;-75
2023/01/17 14:39:56;;;;;;;6.20;3.07;;;4.60;99.90;;;;;;6049417;23;20959;-75
2023/01/17 14:42:26;;;;;;;10.83;3.67;;;4.60;99.90;;;;;;6014614;23;20491;-75
2023/01/17 14:45:01;;;;;;;6.30;3.00;;;4.60;99.90;;;;;;6050007;23;20424;-75
2023/01/17 14:47:32;;;;;;;4.77;2.43;;;4.60;99.90;;;;;;6049990;23;20541;-75
2023/01/17 14:50:21;;;;;;;5.03;3.20;;;4.50;99.90;;;;;;6039936;23;20428;-75
2023/01/17 14:53:15;;;;;;;4.80;2.80;;;4.50;99.90;;;;;;6049641;23;20384;-75